Time;durP1;ratioP1;P1;durP2;ratioP2;P2;SDS_P1;SDS_P2;PMS_P1;PMS_P2;Temp;Humidity;BMP_temperature;BMP_pressure;BME280_temperature;BME280_humidity;BME280_pressure;Samples;Min_cycle;Max_cycle;Signal;HPM_P1;HPM_P2
2023/08/28 00:00:11;;;;;;;9.27;4.30;;;15.70;99.90;;;;;;5053194;28;20045;-43
2023/08/28 00:02:40;;;;;;;8.85;4.05;;;15.70;99.90;;;;;;5054296;28;20071;-43
2023/08/28 00:05:09;;;;;;;6.30;3.75;;;15.70;99.90;;;;;;5050245;28;20081;-43
2023/08/28 00:07:36;;;;;;;6.82;4.03;;;15.70;99.90;;;;;;5054412;28;20044;-39
2023/08/28 00:10:04;;;;;;;6.15;3.63;;;15.70;99.90;;;;;;5053142;28;20133;-41
2023/08/28 00:12:34;;;;;;;6.25;3.78;;;15.70;99.90;;;;;;5054650;28;20045;-45
2023/08/28 00:15:01;;;;;;;8.27;3.65;;;15.70;99.90;;;;;;5057586;28;20075;-43
2023/08/28 00:17:30;;;;;;;7.50;4.40;;;15.70;99.90;;;;;;5059324;28;20501;-41
2023/08/28 00:19:58;;;;;;;6.30;4.07;;;15.70;99.90;;;;;;5055370;28;20044;-43
2023/08/28 00:22:25;;;;;;;6.15;4.10;;;15.70;99.90;;;;;;5059632;28;20079;-45
2023/08/28 00:24:53;;;;;;;7.00;4.10;;;15.70;99.90;;;;;;5055177;28;20110;-39
2023/08/28 00:27:20;;;;;;;6.28;4.10;;;15.60;99.90;;;;;;5055843;28;20052;-43
2023/08/28 00:29:48;;;;;;;9.20;3.95;;;15.60;99.90;;;;;;5055225;28;20056;-41
2023/08/28 00:32:16;;;;;;;6.57;4.40;;;15.60;99.90;;;;;;5055494;28;20045;-45
2023/08/28 00:34:43;;;;;;;8.02;3.70;;;15.60;99.90;;;;;;5055369;28;20243;-41
2023/08/28 00:37:14;;;;;;;8.45;3.70;;;15.60;99.90;;;;;;5058527;28;20044;-43
2023/08/28 00:39:41;;;;;;;5.40;3.63;;;15.60;99.90;;;;;;5054461;28;20088;-42
2023/08/28 00:42:09;;;;;;;7.20;4.03;;;15.60;99.90;;;;;;5060851;28;20060;-41
2023/08/28 00:44:36;;;;;;;7.50;4.00;;;15.60;99.90;;;;;;5057647;28;20099;-44
2023/08/28 00:47:06;;;;;;;6.38;4.10;;;15.50;99.90;;;;;;5055516;28;20110;-44
2023/08/28 00:49:34;;;;;;;7.50;3.85;;;15.50;99.90;;;;;;5056855;28;20044;-44
2023/08/28 00:52:02;;;;;;;7.15;3.95;;;15.50;99.90;;;;;;5057152;28;20131;-41
2023/08/28 00:54:30;;;;;;;6.65;3.53;;;15.50;99.90;;;;;;5054811;28;20037;-41
2023/08/28 00:56:58;;;;;;;10.65;4.60;;;15.50;99.90;;;;;;5055116;28;20401;-39
2023/08/28 00:59:28;;;;;;;7.88;3.90;;;15.40;99.90;;;;;;5057165;28;20143;-43
2023/08/28 01:01:55;;;;;;;7.43;3.70;;;15.40;99.90;;;;;;5052967;28;20455;-48
2023/08/28 01:04:24;;;;;;;6.40;3.97;;;15.40;99.90;;;;;;5055588;28;20136;-41
2023/08/28 01:06:59;;;;;;;5.80;3.78;;;15.30;99.90;;;;;;5052450;28;20045;-44
2023/08/28 01:09:54;;;;;;;7.38;4.20;;;15.30;99.90;;;;;;5056240;28;20349;-46
2023/08/28 01:12:52;;;;;;;7.63;4.07;;;15.20;99.90;;;;;;5057258;28;20088;-40
2023/08/28 01:15:24;;;;;;;7.40;4.35;;;15.20;99.90;;;;;;5053691;28;20517;-45
2023/08/28 01:17:56;;;;;;;8.27;4.43;;;15.20;99.90;;;;;;5054617;28;20041;-41
2023/08/28 01:20:27;;;;;;;8.55;3.90;;;15.30;99.90;;;;;;5058325;28;20555;-38
2023/08/28 01:22:57;;;;;;;7.70;4.00;;;15.30;99.90;;;;;;5054303;28;20383;-43
2023/08/28 01:25:26;;;;;;;6.38;4.75;;;15.20;99.90;;;;;;5057075;28;20080;-48
2023/08/28 01:27:55;;;;;;;6.65;4.45;;;15.20;99.90;;;;;;5054244;28;20052;-43
2023/08/28 01:30:23;;;;;;;7.25;4.32;;;15.20;99.90;;;;;;5057453;28;20045;-44
2023/08/28 01:32:51;;;;;;;6.65;4.07;;;15.20;99.90;;;;;;5053995;28;20105;-42
2023/08/28 01:35:24;;;;;;;7.40;4.05;;;15.20;99.90;;;;;;5055993;28;20432;-42
2023/08/28 01:38:03;;;;;;;6.47;4.07;;;15.20;99.90;;;;;;5054905;28;20037;-43
2023/08/28 01:40:43;;;;;;;6.60;4.63;;;15.20;99.90;;;;;;5058412;28;20041;-41
2023/08/28 01:43:18;;;;;;;7.07;4.40;;;15.20;99.90;;;;;;5057584;28;20124;-39
2023/08/28 01:45:46;;;;;;;6.65;4.28;;;15.20;99.90;;;;;;5056886;28;20060;-43
2023/08/28 01:48:13;;;;;;;7.40;4.10;;;15.20;99.90;;;;;;5056570;28;20060;-41
2023/08/28 01:50:40;;;;;;;8.88;4.80;;;15.20;99.90;;;;;;5057459;28;20055;-42
2023/08/28 01:53:08;;;;;;;8.60;4.35;;;15.20;99.90;;;;;;5052117;28;20095;-46
2023/08/28 01:56:14;;;;;;;6.20;4.57;;;15.20;99.90;;;;;;5055890;28;20060;-44
2023/08/28 01:58:41;;;;;;;6.85;4.40;;;15.20;99.90;;;;;;5054385;28;20136;-45
2023/08/28 02:01:09;;;;;;;9.35;4.82;;;15.10;99.90;;;;;;5053721;28;20052;-43
2023/08/28 02:03:40;;;;;;;8.35;4.25;;;15.20;99.90;;;;;;5055957;28;20079;-42
2023/08/28 02:06:08;;;;;;;6.63;4.50;;;15.10;99.90;;;;;;5053199;28;20041;-45
2023/08/28 02:08:36;;;;;;;6.55;3.85;;;15.10;99.90;;;;;;5056210;28;20056;-41
2023/08/28 02:11:04;;;;;;;7.20;4.32;;;15.10;99.90;;;;;;5052130;28;20052;-45
2023/08/28 02:13:33;;;;;;;5.95;3.80;;;15.10;99.90;;;;;;5053298;28;20477;-43
2023/08/28 02:16:02;;;;;;;13.85;4.88;;;15.20;99.90;;;;;;5035105;28;20558;-42
2023/08/28 02:18:30;;;;;;;7.85;4.50;;;15.20;99.90;;;;;;5056784;28;20493;-42
2023/08/28 02:20:58;;;;;;;9.60;4.45;;;15.10;99.90;;;;;;5049073;28;20343;-43
2023/08/28 02:23:26;;;;;;;5.90;4.10;;;15.20;99.90;;;;;;5051704;28;20476;-43
2023/08/28 02:25:54;;;;;;;7.28;4.22;;;15.20;99.90;;;;;;5052110;28;20041;-45
2023/08/28 02:28:21;;;;;;;7.03;4.40;;;15.20;99.90;;;;;;5053111;28;20095;-43
2023/08/28 02:30:49;;;;;;;10.05;4.75;;;15.10;99.90;;;;;;5051077;28;20045;-42
2023/08/28 02:33:16;;;;;;;11.00;4.30;;;15.20;99.90;;;;;;5050693;28;20115;-45
2023/08/28 02:35:45;;;;;;;7.65;4.47;;;15.20;99.90;;;;;;5054396;28;20060;-46
2023/08/28 02:38:12;;;;;;;6.80;4.05;;;15.20;99.90;;;;;;5050425;28;20521;-44
2023/08/28 02:40:39;;;;;;;10.63;4.35;;;15.10;99.90;;;;;;5053662;28;20090;-45
2023/08/28 02:43:08;;;;;;;8.35;4.65;;;15.10;99.90;;;;;;5053346;28;20163;-41
2023/08/28 02:45:39;;;;;;;8.20;4.93;;;15.10;99.90;;;;;;5051096;28;20127;-42
2023/08/28 02:48:09;;;;;;;6.15;4.07;;;15.10;99.90;;;;;;5043772;28;20048;-43
2023/08/28 02:50:37;;;;;;;7.75;4.80;;;15.10;99.90;;;;;;5049953;28;20055;-44
2023/08/28 02:53:04;;;;;;;7.72;4.50;;;15.00;99.90;;;;;;5050702;28;20156;-45
2023/08/28 02:55:40;;;;;;;6.80;4.45;;;15.10;99.90;;;;;;5051473;28;20508;-41
2023/08/28 02:58:10;;;;;;;11.60;5.03;;;15.00;99.90;;;;;;5052051;28;20367;-41
2023/08/28 03:00:41;;;;;;;7.25;4.70;;;15.10;99.90;;;;;;5052611;28;20466;-44
2023/08/28 03:03:10;;;;;;;8.60;4.57;;;15.00;99.90;;;;;;5051359;28;20041;-41
2023/08/28 03:05:37;;;;;;;6.53;4.50;;;15.10;99.90;;;;;;5054542;28;20032;-44
2023/08/28 03:08:05;;;;;;;6.90;4.97;;;15.10;99.90;;;;;;5049523;28;20045;-41
2023/08/28 03:10:34;;;;;;;9.57;4.53;;;15.10;99.90;;;;;;5050536;28;20052;-41
2023/08/28 03:13:02;;;;;;;7.55;5.20;;;15.00;99.90;;;;;;5052322;28;20217;-41
2023/08/28 03:15:33;;;;;;;5.97;4.15;;;15.10;99.90;;;;;;5055718;28;20067;-44
2023/08/28 03:18:01;;;;;;;7.72;4.93;;;15.10;99.90;;;;;;5050712;28;20849;-43
2023/08/28 03:20:28;;;;;;;10.35;4.82;;;15.10;99.90;;;;;;5053936;28;20402;-42
2023/08/28 03:22:56;;;;;;;8.63;5.32;;;15.10;99.90;;;;;;5047810;28;20068;-42
2023/08/28 03:25:24;;;;;;;8.13;4.82;;;15.10;99.90;;;;;;5052831;28;20060;-46
2023/08/28 03:27:51;;;;;;;9.10;5.28;;;15.20;99.90;;;;;;5048522;28;20045;-41
2023/08/28 03:30:19;;;;;;;9.98;5.32;;;15.20;99.90;;;;;;5055011;28;20069;-46
2023/08/28 03:32:46;;;;;;;8.07;5.15;;;15.20;99.90;;;;;;5048730;28;20060;-43
2023/08/28 03:35:14;;;;;;;9.00;5.35;;;15.20;99.90;;;;;;5053442;28;20039;-43
2023/08/28 03:37:43;;;;;;;8.52;5.32;;;15.20;99.90;;;;;;5053613;28;20115;-45
2023/08/28 03:40:12;;;;;;;9.77;5.67;;;15.30;99.90;;;;;;5048329;28;20461;-42
2023/08/28 03:42:39;;;;;;;9.82;5.00;;;15.30;99.90;;;;;;5054113;28;20061;-46
2023/08/28 03:45:07;;;;;;;6.95;5.10;;;15.30;99.90;;;;;;5049365;28;20105;-40
2023/08/28 03:47:35;;;;;;;8.02;5.53;;;15.30;99.90;;;;;;5044009;28;20069;-45
2023/08/28 03:50:03;;;;;;;10.88;6.30;;;15.40;99.90;;;;;;5050093;28;20069;-46
2023/08/28 03:52:31;;;;;;;11.02;5.82;;;15.40;99.90;;;;;;5050621;28;20048;-43
2023/08/28 03:54:58;;;;;;;8.32;5.65;;;15.30;99.90;;;;;;5051212;28;20138;-45
2023/08/28 03:57:25;;;;;;;7.82;5.60;;;15.30;99.90;;;;;;5054207;28;20044;-44
2023/08/28 03:59:53;;;;;;;10.10;6.15;;;15.30;99.90;;;;;;5048499;28;20520;-41
2023/08/28 04:02:21;;;;;;;8.70;6.15;;;15.30;99.90;;;;;;5053870;28;20041;-39
2023/08/28 04:04:49;;;;;;;8.85;5.78;;;15.30;99.90;;;;;;5046738;28;20048;-40
2023/08/28 04:07:33;;;;;;;8.85;5.07;;;15.30;99.90;;;;;;5052714;28;20078;-42
2023/08/28 04:10:00;;;;;;;8.77;5.68;;;15.30;99.90;;;;;;5049323;28;20041;-43
2023/08/28 04:12:28;;;;;;;11.43;6.20;;;15.30;99.90;;;;;;5052547;28;20559;-42
2023/08/28 04:14:57;;;;;;;7.57;5.65;;;15.20;99.90;;;;;;5051273;28;20130;-44
2023/08/28 04:17:25;;;;;;;8.63;5.50;;;15.20;99.90;;;;;;5055006;28;20049;-41
2023/08/28 04:19:54;;;;;;;11.23;6.15;;;15.20;99.90;;;;;;5048625;28;20087;-45
2023/08/28 04:22:22;;;;;;;9.20;6.18;;;15.20;99.90;;;;;;5051248;28;20045;-43
2023/08/28 04:24:51;;;;;;;13.13;6.72;;;15.20;99.90;;;;;;5049074;28;20591;-42
2023/08/28 04:27:18;;;;;;;8.18;6.07;;;15.20;99.90;;;;;;5052313;28;20524;-41
2023/08/28 04:29:46;;;;;;;7.95;5.80;;;15.20;99.90;;;;;;5052156;28;20148;-41
2023/08/28 04:32:13;;;;;;;10.35;6.72;;;15.20;99.90;;;;;;5048768;28;20041;-43
2023/08/28 04:34:40;;;;;;;8.55;5.97;;;15.20;99.90;;;;;;5049649;28;20056;-43
2023/08/28 04:37:08;;;;;;;7.70;6.10;;;15.20;99.90;;;;;;5050290;28;20053;-46
2023/08/28 04:39:35;;;;;;;12.10;5.70;;;15.20;99.90;;;;;;5052868;28;20036;-43
2023/08/28 04:42:03;;;;;;;10.35;6.88;;;15.20;99.90;;;;;;5051763;28;20041;-44
2023/08/28 04:44:30;;;;;;;12.60;8.25;;;15.30;99.90;;;;;;5050587;28;20032;-43
2023/08/28 04:46:58;;;;;;;11.15;7.53;;;15.30;99.90;;;;;;5051554;28;20068;-43
2023/08/28 04:49:26;;;;;;;9.35;6.63;;;15.30;99.90;;;;;;5054174;28;20065;-45
2023/08/28 04:51:57;;;;;;;11.48;7.25;;;15.30;99.90;;;;;;5049501;28;20044;-43
2023/08/28 04:54:24;;;;;;;9.40;6.85;;;15.30;99.90;;;;;;5053430;28;20060;-40
2023/08/28 04:56:52;;;;;;;10.18;7.30;;;15.30;99.90;;;;;;5048877;28;20041;-46
2023/08/28 04:59:19;;;;;;;12.32;8.68;;;15.40;99.90;;;;;;5038006;28;20053;-44
2023/08/28 05:01:46;;;;;;;9.32;6.97;;;15.40;99.90;;;;;;5053002;28;20116;-40
2023/08/28 05:04:14;;;;;;;8.65;6.30;;;15.40;99.90;;;;;;5053883;28;20065;-42
2023/08/28 05:06:41;;;;;;;14.18;7.05;;;15.40;99.90;;;;;;5054516;28;20044;-44
2023/08/28 05:09:10;;;;;;;9.73;7.50;;;15.30;99.90;;;;;;5049915;28;20122;-48
2023/08/28 05:11:38;;;;;;;17.70;8.43;;;15.40;99.90;;;;;;5056537;28;20045;-41
2023/08/28 05:14:05;;;;;;;11.40;8.40;;;15.30;99.90;;;;;;5052340;28;20060;-42
2023/08/28 05:16:32;;;;;;;12.35;8.48;;;15.40;99.90;;;;;;5057883;28;20521;-46
2023/08/28 05:19:00;;;;;;;14.02;7.75;;;15.30;99.90;;;;;;5054040;28;20448;-44
2023/08/28 05:21:27;;;;;;;12.30;7.95;;;15.30;99.90;;;;;;5054312;28;20041;-41
2023/08/28 05:23:54;;;;;;;12.95;7.10;;;15.40;99.90;;;;;;5055820;28;20049;-49
2023/08/28 05:26:22;;;;;;;10.70;7.07;;;15.30;99.90;;;;;;5054540;28;20045;-41
2023/08/28 05:28:52;;;;;;;11.07;6.57;;;15.40;99.90;;;;;;5049640;28;20051;-39
2023/08/28 05:31:19;;;;;;;8.15;6.28;;;15.40;99.90;;;;;;5055528;28;20049;-42
2023/08/28 05:33:47;;;;;;;11.65;8.57;;;15.40;99.90;;;;;;5047470;28;20041;-44
2023/08/28 05:36:14;;;;;;;12.85;8.57;;;15.40;99.90;;;;;;5048070;28;20124;-44
2023/08/28 05:38:42;;;;;;;12.27;8.65;;;15.40;99.90;;;;;;5049737;28;20096;-43
2023/08/28 05:41:10;;;;;;;11.77;8.73;;;15.40;99.90;;;;;;5053810;28;20127;-44
2023/08/28 05:43:37;;;;;;;17.70;10.23;;;15.50;99.90;;;;;;5047297;28;20404;-42
2023/08/28 05:46:04;;;;;;;14.60;9.75;;;15.40;99.90;;;;;;5054863;28;20048;-41
2023/08/28 05:48:33;;;;;;;13.82;11.57;;;15.40;99.90;;;;;;5055019;28;20047;-43
2023/08/28 05:51:00;;;;;;;14.27;10.98;;;15.40;99.90;;;;;;5053847;28;20482;-41
2023/08/28 05:53:29;;;;;;;21.00;13.68;;;15.40;99.90;;;;;;5056711;28;20052;-44
2023/08/28 05:55:56;;;;;;;14.50;11.63;;;15.50;99.90;;;;;;5053005;28;20041;-41
2023/08/28 05:58:24;;;;;;;15.35;11.27;;;15.50;99.90;;;;;;5053194;28;20129;-43
2023/08/28 06:00:53;;;;;;;15.85;10.93;;;15.50;99.90;;;;;;5050787;28;20127;-43
2023/08/28 06:03:20;;;;;;;13.57;10.70;;;15.50;99.90;;;;;;5054032;28;20460;-44
2023/08/28 06:05:48;;;;;;;17.77;11.25;;;15.60;99.90;;;;;;5053369;28;20099;-45
2023/08/28 06:08:16;;;;;;;15.68;11.55;;;15.60;99.90;;;;;;5056206;28;20053;-45
2023/08/28 06:10:44;;;;;;;16.80;11.68;;;15.60;99.90;;;;;;5052023;28;20397;-47
2023/08/28 06:13:12;;;;;;;15.25;11.63;;;15.60;99.90;;;;;;5039619;28;20114;-48
2023/08/28 06:15:39;;;;;;;14.93;11.43;;;15.70;99.90;;;;;;5042310;28;20046;-43
2023/08/28 06:18:07;;;;;;;15.18;11.77;;;15.70;99.90;;;;;;5045067;28;20525;-42
2023/08/28 06:20:35;;;;;;;15.75;11.65;;;15.70;99.90;;;;;;5045921;28;20094;-44
2023/08/28 06:23:03;;;;;;;15.60;11.60;;;15.70;99.90;;;;;;5044529;28;20115;-45
2023/08/28 06:25:31;;;;;;;13.35;10.90;;;15.80;99.90;;;;;;5051852;28;20076;-46
2023/08/28 06:27:58;;;;;;;15.98;11.70;;;15.90;99.90;;;;;;5048384;28;20072;-46
2023/08/28 06:30:25;;;;;;;19.58;11.90;;;16.00;99.90;;;;;;5049248;28;20132;-44
2023/08/28 06:32:53;;;;;;;17.25;12.40;;;16.00;99.90;;;;;;5049658;28;20049;-44
2023/08/28 06:35:21;;;;;;;18.23;12.13;;;16.20;99.90;;;;;;5051981;28;20045;-44
2023/08/28 06:37:50;;;;;;;15.00;11.18;;;16.30;99.90;;;;;;5052004;28;20092;-45
2023/08/28 06:40:17;;;;;;;17.25;12.00;;;16.40;99.90;;;;;;5052973;28;20049;-41
2023/08/28 06:42:45;;;;;;;17.38;11.63;;;16.50;99.90;;;;;;5048175;28;20068;-42
2023/08/28 06:45:12;;;;;;;14.55;10.43;;;16.50;99.90;;;;;;5051122;28;20053;-44
2023/08/28 06:47:39;;;;;;;12.57;10.32;;;16.50;99.90;;;;;;5052857;28;20095;-41
2023/08/28 06:50:07;;;;;;;14.52;10.52;;;16.50;99.90;;;;;;5049786;28;20045;-46
2023/08/28 06:52:36;;;;;;;13.65;10.05;;;16.40;99.90;;;;;;5044291;28;20051;-48
2023/08/28 06:55:03;;;;;;;11.90;9.90;;;16.30;99.90;;;;;;5048327;28;20488;-48
2023/08/28 06:57:32;;;;;;;14.50;9.32;;;16.50;99.90;;;;;;5048400;28;20044;-45
2023/08/28 06:59:59;;;;;;;14.98;10.13;;;16.70;99.90;;;;;;5044999;28;20439;-42
2023/08/28 07:02:30;;;;;;;12.82;10.20;;;16.90;99.90;;;;;;5051711;28;20604;-39
2023/08/28 07:04:58;;;;;;;13.80;9.07;;;17.00;99.90;;;;;;5047675;28;20049;-44
2023/08/28 07:07:27;;;;;;;12.93;8.40;;;16.90;99.90;;;;;;5050654;28;20052;-43
2023/08/28 07:09:54;;;;;;;11.23;8.13;;;16.90;99.90;;;;;;5047912;28;20102;-45
2023/08/28 07:12:21;;;;;;;9.73;8.27;;;17.00;99.90;;;;;;5051072;28;20526;-44
2023/08/28 07:15:13;;;;;;;10.52;8.43;;;17.00;99.90;;;;;;5051183;28;20045;-44
2023/08/28 07:17:41;;;;;;;;;;;17.10;99.90;;;;;;5053495;28;20045;-44
2023/08/28 07:20:09;;;;;;;11.98;8.10;;;17.10;99.90;;;;;;5052848;28;19928;-48
2023/08/28 07:22:37;;;;;;;18.48;13.60;;;17.10;99.90;;;;;;5054028;28;20066;-42
2023/08/28 07:25:04;;;;;;;10.05;6.93;;;17.10;99.90;;;;;;5052611;28;20052;-45
2023/08/28 07:27:32;;;;;;;8.02;7.05;;;17.00;99.90;;;;;;5052448;28;20597;-42
2023/08/28 07:30:01;;;;;;;8.93;7.28;;;17.00;99.90;;;;;;5051419;28;20095;-44
2023/08/28 07:32:29;;;;;;;9.38;7.60;;;16.90;99.90;;;;;;5052929;28;20045;-46
2023/08/28 07:34:59;;;;;;;11.45;8.40;;;17.00;99.90;;;;;;5050982;28;20406;-49
2023/08/28 07:37:30;;;;;;;10.90;7.03;;;16.90;99.90;;;;;;5054640;28;20038;-43
2023/08/28 07:39:57;;;;;;;16.95;8.45;;;16.90;99.90;;;;;;5051551;28;20532;-45
2023/08/28 07:42:25;;;;;;;11.82;7.03;;;16.90;99.90;;;;;;5054460;28;20045;-44
2023/08/28 07:44:52;;;;;;;11.10;6.47;;;16.90;99.90;;;;;;5051050;28;20124;-42
2023/08/28 07:47:20;;;;;;;13.05;7.32;;;16.90;99.90;;;;;;5048170;28;20119;-43
2023/08/28 07:49:48;;;;;;;7.63;6.40;;;16.90;99.90;;;;;;5051137;28;20049;-41
2023/08/28 07:52:15;;;;;;;13.60;7.15;;;16.90;99.90;;;;;;5051137;28;20148;-44
2023/08/28 07:54:42;;;;;;;8.95;6.70;;;17.00;99.90;;;;;;5052453;28;20052;-45
2023/08/28 07:57:09;;;;;;;8.73;6.53;;;16.90;99.90;;;;;;5049797;28;20107;-47
2023/08/28 07:59:37;;;;;;;9.90;5.55;;;17.00;99.90;;;;;;5039551;28;20068;-45
2023/08/28 08:02:04;;;;;;;8.48;5.25;;;17.10;99.90;;;;;;5045891;28;20056;-42
2023/08/28 08:04:35;;;;;;;8.60;5.75;;;17.10;99.90;;;;;;5050336;28;20646;-44
2023/08/28 08:07:02;;;;;;;9.98;6.13;;;17.10;99.90;;;;;;5050953;28;20048;-40
2023/08/28 08:09:29;;;;;;;9.18;5.68;;;17.20;99.90;;;;;;5049812;28;20053;-45
2023/08/28 08:11:56;;;;;;;8.30;5.00;;;17.10;99.90;;;;;;5051606;28;20505;-47
2023/08/28 08:14:24;;;;;;;8.23;5.80;;;17.00;99.90;;;;;;5051274;28;20045;-48
2023/08/28 08:16:51;;;;;;;8.43;6.40;;;17.00;99.90;;;;;;5047509;28;20115;-44
2023/08/28 08:19:19;;;;;;;11.07;6.82;;;16.80;99.90;;;;;;5050344;28;20037;-44
2023/08/28 08:21:46;;;;;;;12.27;6.25;;;16.80;99.90;;;;;;5049481;28;20099;-46
2023/08/28 08:24:13;;;;;;;10.68;6.43;;;16.80;99.90;;;;;;5051344;28;20408;-48
2023/08/28 08:26:41;;;;;;;8.77;6.30;;;16.80;99.90;;;;;;5045180;28;20056;-44
2023/08/28 08:29:08;;;;;;;8.25;5.93;;;16.80;99.90;;;;;;5047602;28;20059;-47
2023/08/28 08:31:36;;;;;;;9.25;6.15;;;16.90;99.90;;;;;;5044668;28;20045;-42
2023/08/28 08:34:03;;;;;;;7.50;6.40;;;16.90;99.90;;;;;;5040891;28;20198;-47
2023/08/28 08:36:30;;;;;;;10.82;7.25;;;17.00;99.90;;;;;;5049650;28;20241;-42
2023/08/28 08:38:58;;;;;;;10.85;6.72;;;16.90;99.90;;;;;;5045191;28;20053;-41
2023/08/28 08:41:25;;;;;;;8.32;6.35;;;16.90;99.90;;;;;;5046851;28;20129;-42
2023/08/28 08:43:53;;;;;;;9.05;7.28;;;17.00;99.90;;;;;;5051905;28;20580;-42
2023/08/28 08:46:20;;;;;;;12.15;7.03;;;16.90;99.90;;;;;;5048741;28;20433;-48
2023/08/28 08:48:51;;;;;;;11.73;7.57;;;16.90;99.90;;;;;;5055294;28;20055;-45
2023/08/28 08:51:24;;;;;;;10.70;8.15;;;16.70;99.90;;;;;;5056062;28;20102;-45
2023/08/28 08:54:08;;;;;;;11.82;7.38;;;16.50;99.90;;;;;;5053310;28;20102;-39
2023/08/28 08:56:37;;;;;;;11.00;7.70;;;16.50;99.90;;;;;;5051914;28;20552;-42
2023/08/28 08:59:04;;;;;;;10.07;7.57;;;16.50;99.90;;;;;;5054313;28;20037;-41
2023/08/28 09:01:32;;;;;;;9.18;8.10;;;16.50;99.90;;;;;;5048520;28;20501;-44
2023/08/28 09:04:02;;;;;;;10.32;7.32;;;16.50;99.90;;;;;;5050545;28;20049;-40
2023/08/28 09:06:33;;;;;;;9.15;7.63;;;16.50;99.90;;;;;;5055299;28;20048;-40
2023/08/28 09:09:00;;;;;;;8.90;7.18;;;16.50;99.90;;;;;;5053779;28;20448;-43
2023/08/28 09:11:28;;;;;;;10.02;7.00;;;16.40;99.90;;;;;;5052148;28;20552;-42
2023/08/28 09:13:55;;;;;;;8.80;6.75;;;16.40;99.90;;;;;;5056070;28;20048;-38
2023/08/28 09:16:23;;;;;;;11.20;7.32;;;16.40;99.90;;;;;;5056863;28;20053;-40
2023/08/28 09:18:52;;;;;;;8.55;6.90;;;16.40;99.90;;;;;;5056944;28;20072;-38
2023/08/28 09:21:19;;;;;;;10.32;7.57;;;16.40;99.90;;;;;;5057346;28;20072;-40
2023/08/28 09:23:50;;;;;;;8.77;7.07;;;16.50;99.90;;;;;;5056890;28;20080;-38
2023/08/28 09:26:20;;;;;;;12.05;7.88;;;16.50;99.90;;;;;;5054936;28;20060;-40
2023/08/28 09:29:00;;;;;;;10.15;6.97;;;16.50;99.90;;;;;;5053471;28;20041;-40
2023/08/28 09:31:46;;;;;;;10.05;6.72;;;16.60;99.90;;;;;;5056297;28;20057;-42
2023/08/28 09:34:14;;;;;;;13.70;7.10;;;16.70;99.90;;;;;;5052473;28;20529;-41
2023/08/28 09:36:41;;;;;;;8.85;7.32;;;16.80;99.90;;;;;;5055809;28;20440;-39
2023/08/28 09:39:14;;;;;;;10.75;7.28;;;16.90;99.90;;;;;;5051818;28;20073;-40
2023/08/28 09:41:49;;;;;;;13.40;6.47;;;16.90;99.90;;;;;;5055771;28;20264;-40
2023/08/28 09:44:21;;;;;;;9.35;6.45;;;17.00;99.90;;;;;;5054141;28;20136;-40
2023/08/28 09:46:51;;;;;;;;;;;16.90;99.90;;;;;;5049083;28;20053;-43
2023/08/28 09:49:19;;;;;;;8.85;6.00;;;17.00;99.90;;;;;;5052524;28;20015;-40
2023/08/28 09:51:49;;;;;;;9.70;5.78;;;17.00;99.90;;;;;;5051124;28;20060;-38
2023/08/28 09:54:17;;;;;;;8.52;5.80;;;17.00;99.90;;;;;;5053393;28;20359;-43
2023/08/28 09:56:45;;;;;;;7.82;5.53;;;17.00;99.90;;;;;;5054711;28;20045;-40
2023/08/28 09:59:14;;;;;;;9.68;5.57;;;16.90;99.90;;;;;;5052564;28;20049;-37
2023/08/28 10:01:42;;;;;;;7.72;5.35;;;17.00;99.90;;;;;;5055294;28;20036;-40
2023/08/28 10:04:12;;;;;;;9.70;5.70;;;16.80;99.90;;;;;;5050624;28;20106;-37
2023/08/28 10:06:49;;;;;;;7.72;5.50;;;16.70;99.90;;;;;;5053987;28;20054;-38
2023/08/28 10:09:19;;;;;;;9.02;6.03;;;16.70;99.90;;;;;;5053136;28;20135;-42
2023/08/28 10:11:50;;;;;;;9.82;5.95;;;16.80;99.90;;;;;;5054970;28;20102;-39
2023/08/28 10:14:19;;;;;;;7.07;5.82;;;16.90;99.90;;;;;;5054604;28;20125;-41
2023/08/28 10:16:53;;;;;;;7.68;5.85;;;17.10;99.90;;;;;;5055494;28;20122;-39
2023/08/28 10:19:33;;;;;;;9.52;5.28;;;17.20;99.90;;;;;;5057594;28;20045;-39
2023/08/28 10:22:03;;;;;;;7.93;5.85;;;17.40;99.90;;;;;;5052022;28;20421;-40
2023/08/28 10:24:32;;;;;;;7.78;5.07;;;17.70;99.90;;;;;;5052087;28;20118;-40
2023/08/28 10:27:00;;;;;;;7.35;5.03;;;18.20;99.90;;;;;;5053223;28;20110;-38
2023/08/28 10:29:29;;;;;;;9.02;4.65;;;18.70;99.90;;;;;;5053252;28;20115;-42
2023/08/28 10:31:58;;;;;;;7.97;5.80;;;18.90;99.90;;;;;;5052930;28;20623;-38
2023/08/28 10:34:26;;;;;;;6.22;3.70;;;19.20;99.90;;;;;;5055588;28;20048;-39
2023/08/28 10:36:55;;;;;;;7.25;3.45;;;19.30;99.90;;;;;;5055468;28;20525;-41
2023/08/28 10:39:41;;;;;;;6.25;4.03;;;19.40;99.90;;;;;;5049915;28;20041;-41
2023/08/28 10:42:10;;;;;;;5.35;3.65;;;19.30;99.90;;;;;;5056221;28;20115;-43
2023/08/28 10:44:38;;;;;;;9.57;4.50;;;19.30;99.90;;;;;;5052065;28;20485;-39
2023/08/28 10:47:06;;;;;;;5.88;3.90;;;19.20;99.90;;;;;;5051232;28;20087;-45
2023/08/28 10:49:34;;;;;;;6.80;4.18;;;19.30;99.90;;;;;;5042935;28;20521;-41
2023/08/28 10:52:05;;;;;;;6.45;3.63;;;19.50;99.90;;;;;;5046430;28;20235;-39
2023/08/28 10:54:43;;;;;;;5.53;3.72;;;19.70;99.90;;;;;;5041317;28;20378;-44
2023/08/28 10:57:23;;;;;;;6.55;3.88;;;19.80;99.90;;;;;;5041246;28;20049;-43
2023/08/28 10:59:51;;;;;;;8.15;4.35;;;19.70;99.90;;;;;;5046796;28;20045;-40
2023/08/28 11:02:19;;;;;;;5.53;4.10;;;19.60;99.90;;;;;;5048455;28;20453;-40
2023/08/28 11:04:47;;;;;;;5.32;3.85;;;19.40;99.90;;;;;;5048082;28;20045;-42
2023/08/28 11:07:21;;;;;;;5.93;3.30;;;19.40;99.90;;;;;;5042498;28;20099;-40
2023/08/28 11:09:49;;;;;;;5.30;3.10;;;19.30;99.90;;;;;;5049072;28;20044;-40
2023/08/28 11:12:19;;;;;;;6.15;3.60;;;19.30;99.90;;;;;;5049585;28;20079;-40
2023/08/28 11:14:53;;;;;;;8.05;4.70;;;19.40;99.90;;;;;;5042194;28;20417;-43
2023/08/28 11:17:22;;;;;;;5.90;3.40;;;19.40;99.90;;;;;;5046518;28;20053;-39
2023/08/28 11:19:54;;;;;;;4.72;2.67;;;19.60;99.90;;;;;;5047980;28;20041;-44
2023/08/28 11:22:42;;;;;;;5.53;3.50;;;20.00;99.90;;;;;;5050319;28;20469;-39
2023/08/28 11:25:12;;;;;;;5.03;2.40;;;20.20;99.90;;;;;;5044050;28;20532;-40
2023/08/28 11:27:42;;;;;;;6.13;3.05;;;20.30;99.90;;;;;;5049915;28;20489;-39
2023/08/28 11:30:11;;;;;;;3.97;2.90;;;20.60;99.90;;;;;;5050310;28;20690;-39
2023/08/28 11:32:41;;;;;;;5.65;2.90;;;20.50;99.90;;;;;;5049022;28;20524;-39
2023/08/28 11:35:09;;;;;;;4.45;3.20;;;20.70;99.90;;;;;;5042744;28;20045;-40
2023/08/28 11:37:39;;;;;;;5.28;2.90;;;20.50;99.90;;;;;;5048234;28;20132;-38
2023/08/28 11:40:08;;;;;;;4.68;2.90;;;20.40;99.90;;;;;;5052375;28;20052;-39
2023/08/28 11:42:37;;;;;;;3.90;2.80;;;20.20;99.90;;;;;;5048297;28;20048;-45
2023/08/28 11:45:06;;;;;;;3.75;3.05;;;20.20;99.90;;;;;;5040529;28;20064;-37
2023/08/28 11:47:34;;;;;;;5.43;3.10;;;20.30;99.90;;;;;;5062143;28;20064;-42
2023/08/28 11:50:05;;;;;;;4.65;2.85;;;20.30;99.90;;;;;;5042708;28;20517;-45
2023/08/28 11:52:33;;;;;;;6.75;4.50;;;20.30;99.90;;;;;;5060742;28;20118;-46
2023/08/28 11:55:03;;;;;;;4.55;3.35;;;20.20;99.90;;;;;;5050543;28;20567;-41
2023/08/28 11:57:33;;;;;;;5.63;3.25;;;20.10;99.90;;;;;;5046683;28;20136;-40
2023/08/28 12:00:03;;;;;;;8.65;3.10;;;20.10;99.90;;;;;;5051951;28;20235;-43
2023/08/28 12:02:40;;;;;;;5.03;2.97;;;20.00;99.90;;;;;;5046234;28;20447;-41
2023/08/28 12:05:08;;;;;;;4.85;3.05;;;19.90;99.90;;;;;;5049866;28;20044;-40
2023/08/28 12:07:35;;;;;;;4.95;3.05;;;20.10;99.90;;;;;;5053703;28;20051;-40
2023/08/28 12:10:03;;;;;;;4.00;2.97;;;19.90;99.90;;;;;;5054436;28;20060;-40
2023/08/28 12:12:31;;;;;;;5.53;2.95;;;19.50;99.90;;;;;;5052437;28;20052;-42
2023/08/28 12:14:59;;;;;;;3.25;2.60;;;19.50;99.90;;;;;;5046284;28;20536;-39
2023/08/28 12:17:26;;;;;;;4.35;3.08;;;19.40;99.90;;;;;;5055296;28;20195;-41
2023/08/28 12:19:54;;;;;;;4.95;2.83;;;19.30;99.90;;;;;;5048347;28;20056;-41
2023/08/28 12:22:21;;;;;;;4.20;2.85;;;19.20;99.90;;;;;;5064149;28;20042;-38
2023/08/28 12:24:50;;;;;;;4.70;3.38;;;19.20;99.90;;;;;;5054545;28;20036;-42
2023/08/28 12:27:24;;;;;;;4.55;2.70;;;18.90;99.90;;;;;;5045562;28;20053;-39
2023/08/28 12:29:54;;;;;;;3.97;2.97;;;18.70;99.90;;;;;;5048225;28;20064;-41
2023/08/28 12:32:22;;;;;;;4.47;2.90;;;18.70;99.90;;;;;;5053503;28;20123;-39
2023/08/28 12:34:49;;;;;;;4.53;3.00;;;18.70;99.90;;;;;;5047253;28;20169;-43
2023/08/28 12:37:17;;;;;;;5.50;2.70;;;18.80;99.90;;;;;;5053813;28;20136;-42
2023/08/28 12:39:50;;;;;;;3.88;2.70;;;18.70;99.90;;;;;;5053019;28;20044;-39
2023/08/28 12:42:19;;;;;;;4.10;2.70;;;18.60;99.90;;;;;;5050961;28;20589;-40
2023/08/28 12:44:47;;;;;;;6.25;3.00;;;18.60;99.90;;;;;;5054496;28;20207;-40
2023/08/28 12:47:17;;;;;;;5.45;3.50;;;18.20;99.90;;;;;;5048965;28;20048;-42
2023/08/28 12:49:45;;;;;;;9.70;2.90;;;18.20;99.90;;;;;;5057513;28;20080;-40
2023/08/28 12:52:12;;;;;;;3.25;2.47;;;18.20;99.90;;;;;;5053562;28;20056;-41